sensor_id;sensor_type;location;lat;lon;timestamp;temperature;humidity
70269;DHT22;58514;48.398;-4.274;2022-07-04T00:00:21;14.20;78.20
70269;DHT22;58514;48.398;-4.274;2022-07-04T00:02:48;14.20;78.60
70269;DHT22;58514;48.398;-4.274;2022-07-04T00:05:14;14.20;78.40
70269;DHT22;58514;48.398;-4.274;2022-07-04T00:07:42;14.20;78.10
70269;DHT22;58514;48.398;-4.274;2022-07-04T00:10:09;14.20;78.80
70269;DHT22;58514;48.398;-4.274;2022-07-04T00:12:36;14.20;79.10
70269;DHT22;58514;48.398;-4.274;2022-07-04T00:15:04;14.20;79.30
70269;DHT22;58514;48.398;-4.274;2022-07-04T00:17:30;14.20;79.50
70269;DHT22;58514;48.398;-4.274;2022-07-04T00:19:56;14.20;78.80
70269;DHT22;58514;48.398;-4.274;2022-07-04T00:22:22;14.20;78.80
70269;DHT22;58514;48.398;-4.274;2022-07-04T00:24:47;14.10;78.50
70269;DHT22;58514;48.398;-4.274;2022-07-04T00:27:13;14.10;78.30
70269;DHT22;58514;48.398;-4.274;2022-07-04T00:29:39;14.00;78.60
70269;DHT22;58514;48.398;-4.274;2022-07-04T00:32:05;14.00;78.90
70269;DHT22;58514;48.398;-4.274;2022-07-04T00:34:30;14.00;79.00
70269;DHT22;58514;48.398;-4.274;2022-07-04T00:36:56;14.00;79.00
70269;DHT22;58514;48.398;-4.274;2022-07-04T00:39:22;13.90;79.10
70269;DHT22;58514;48.398;-4.274;2022-07-04T00:41:47;13.90;79.50
70269;DHT22;58514;48.398;-4.274;2022-07-04T00:44:14;13.90;79.50
70269;DHT22;58514;48.398;-4.274;2022-07-04T00:46:45;13.90;79.90
70269;DHT22;58514;48.398;-4.274;2022-07-04T00:49:11;13.80;80.00
70269;DHT22;58514;48.398;-4.274;2022-07-04T00:51:38;13.80;80.00
70269;DHT22;58514;48.398;-4.274;2022-07-04T00:54:06;13.80;79.70
70269;DHT22;58514;48.398;-4.274;2022-07-04T00:56:32;13.80;79.70
70269;DHT22;58514;48.398;-4.274;2022-07-04T00:59:00;13.80;79.80
70269;DHT22;58514;48.398;-4.274;2022-07-04T01:01:26;13.80;79.90
70269;DHT22;58514;48.398;-4.274;2022-07-04T01:03:52;13.70;80.50
70269;DHT22;58514;48.398;-4.274;2022-07-04T01:06:19;13.70;80.60
70269;DHT22;58514;48.398;-4.274;2022-07-04T01:08:45;13.70;80.30
70269;DHT22;58514;48.398;-4.274;2022-07-04T01:11:11;13.70;80.60
70269;DHT22;58514;48.398;-4.274;2022-07-04T01:13:38;13.70;80.90
70269;DHT22;58514;48.398;-4.274;2022-07-04T01:16:06;13.70;80.80
70269;DHT22;58514;48.398;-4.274;2022-07-04T01:18:32;13.80;81.10
70269;DHT22;58514;48.398;-4.274;2022-07-04T01:20:58;13.70;80.90
70269;DHT22;58514;48.398;-4.274;2022-07-04T01:23:23;13.80;81.30
70269;DHT22;58514;48.398;-4.274;2022-07-04T01:25:49;13.80;81.10
70269;DHT22;58514;48.398;-4.274;2022-07-04T01:28:17;13.70;80.90
70269;DHT22;58514;48.398;-4.274;2022-07-04T01:30:43;13.70;80.90
70269;DHT22;58514;48.398;-4.274;2022-07-04T01:33:09;13.70;80.60
70269;DHT22;58514;48.398;-4.274;2022-07-04T01:35:34;13.70;80.90
70269;DHT22;58514;48.398;-4.274;2022-07-04T01:38:00;13.60;82.00
70269;DHT22;58514;48.398;-4.274;2022-07-04T01:40:26;13.70;81.80
70269;DHT22;58514;48.398;-4.274;2022-07-04T01:42:52;13.70;81.70
70269;DHT22;58514;48.398;-4.274;2022-07-04T01:45:17;13.60;81.60
70269;DHT22;58514;48.398;-4.274;2022-07-04T01:47:43;13.60;81.70
70269;DHT22;58514;48.398;-4.274;2022-07-04T01:50:10;13.60;81.80
70269;DHT22;58514;48.398;-4.274;2022-07-04T01:52:41;13.60;82.20
70269;DHT22;58514;48.398;-4.274;2022-07-04T01:55:08;13.60;82.20
70269;DHT22;58514;48.398;-4.274;2022-07-04T01:57:34;13.60;81.30
70269;DHT22;58514;48.398;-4.274;2022-07-04T01:59:59;13.50;81.60
70269;DHT22;58514;48.398;-4.274;2022-07-04T02:02:44;13.50;82.10
70269;DHT22;58514;48.398;-4.274;2022-07-04T02:05:10;13.50;82.30
70269;DHT22;58514;48.398;-4.274;2022-07-04T02:07:36;13.50;82.40
70269;DHT22;58514;48.398;-4.274;2022-07-04T02:10:02;13.50;82.40
70269;DHT22;58514;48.398;-4.274;2022-07-04T02:12:28;13.50;82.50
70269;DHT22;58514;48.398;-4.274;2022-07-04T02:15:12;13.50;83.00
70269;DHT22;58514;48.398;-4.274;2022-07-04T02:17:38;13.50;82.70
70269;DHT22;58514;48.398;-4.274;2022-07-04T02:20:04;13.50;82.30
70269;DHT22;58514;48.398;-4.274;2022-07-04T02:22:32;13.50;82.40
70269;DHT22;58514;48.398;-4.274;2022-07-04T02:24:58;13.40;83.00
70269;DHT22;58514;48.398;-4.274;2022-07-04T02:27:24;13.50;83.00
70269;DHT22;58514;48.398;-4.274;2022-07-04T02:29:49;13.40;82.80
70269;DHT22;58514;48.398;-4.274;2022-07-04T02:32:15;13.40;82.50
70269;DHT22;58514;48.398;-4.274;2022-07-04T02:34:41;13.40;82.50
70269;DHT22;58514;48.398;-4.274;2022-07-04T02:37:06;13.40;82.50
70269;DHT22;58514;48.398;-4.274;2022-07-04T02:39:32;13.40;82.00
70269;DHT22;58514;48.398;-4.274;2022-07-04T02:41:58;13.30;82.10
70269;DHT22;58514;48.398;-4.274;2022-07-04T02:44:24;13.20;83.00
70269;DHT22;58514;48.398;-4.274;2022-07-04T02:46:50;13.20;82.80
70269;DHT22;58514;48.398;-4.274;2022-07-04T02:49:15;13.20;83.60
70269;DHT22;58514;48.398;-4.274;2022-07-04T02:51:41;13.20;83.80
70269;DHT22;58514;48.398;-4.274;2022-07-04T02:54:07;13.20;83.60
70269;DHT22;58514;48.398;-4.274;2022-07-04T02:56:33;13.20;83.70
70269;DHT22;58514;48.398;-4.274;2022-07-04T02:58:59;13.10;83.50
70269;DHT22;58514;48.398;-4.274;2022-07-04T03:01:25;13.20;83.50
70269;DHT22;58514;48.398;-4.274;2022-07-04T03:03:51;13.10;83.90
70269;DHT22;58514;48.398;-4.274;2022-07-04T03:06:16;13.10;84.30
70269;DHT22;58514;48.398;-4.274;2022-07-04T03:08:42;13.10;83.70
70269;DHT22;58514;48.398;-4.274;2022-07-04T03:11:08;13.10;83.50
70269;DHT22;58514;48.398;-4.274;2022-07-04T03:13:36;13.10;84.00
70269;DHT22;58514;48.398;-4.274;2022-07-04T03:16:02;13.10;84.20
70269;DHT22;58514;48.398;-4.274;2022-07-04T03:18:28;13.10;84.50
70269;DHT22;58514;48.398;-4.274;2022-07-04T03:20:53;13.10;84.60
70269;DHT22;58514;48.398;-4.274;2022-07-04T03:23:19;13.10;84.70
70269;DHT22;58514;48.398;-4.274;2022-07-04T03:25:45;13.20;84.70
70269;DHT22;58514;48.398;-4.274;2022-07-04T03:28:11;13.10;83.90
70269;DHT22;58514;48.398;-4.274;2022-07-04T03:30:36;13.10;84.30
70269;DHT22;58514;48.398;-4.274;2022-07-04T03:33:02;13.10;85.30
70269;DHT22;58514;48.398;-4.274;2022-07-04T03:35:28;13.00;84.60
70269;DHT22;58514;48.398;-4.274;2022-07-04T03:37:54;13.00;84.50
70269;DHT22;58514;48.398;-4.274;2022-07-04T03:40:20;13.00;84.40
70269;DHT22;58514;48.398;-4.274;2022-07-04T03:42:47;13.00;84.50
70269;DHT22;58514;48.398;-4.274;2022-07-04T03:45:13;13.00;85.40
70269;DHT22;58514;48.398;-4.274;2022-07-04T03:47:38;13.00;85.10
70269;DHT22;58514;48.398;-4.274;2022-07-04T03:50:05;13.00;85.00
70269;DHT22;58514;48.398;-4.274;2022-07-04T03:52:31;13.00;85.20
70269;DHT22;58514;48.398;-4.274;2022-07-04T03:54:57;13.00;85.40
70269;DHT22;58514;48.398;-4.274;2022-07-04T03:57:22;13.00;85.00
70269;DHT22;58514;48.398;-4.274;2022-07-04T03:59:48;13.00;85.30
70269;DHT22;58514;48.398;-4.274;2022-07-04T04:02:14;12.90;85.10
70269;DHT22;58514;48.398;-4.274;2022-07-04T04:04:40;12.90;85.10
70269;DHT22;58514;48.398;-4.274;2022-07-04T04:07:25;12.90;85.10
70269;DHT22;58514;48.398;-4.274;2022-07-04T04:09:51;12.90;85.40
70269;DHT22;58514;48.398;-4.274;2022-07-04T04:12:16;12.90;85.90
70269;DHT22;58514;48.398;-4.274;2022-07-04T04:14:42;12.90;85.30
70269;DHT22;58514;48.398;-4.274;2022-07-04T04:17:08;12.90;85.80
70269;DHT22;58514;48.398;-4.274;2022-07-04T04:19:34;12.90;85.80
70269;DHT22;58514;48.398;-4.274;2022-07-04T04:21:59;12.90;86.00
70269;DHT22;58514;48.398;-4.274;2022-07-04T04:24:25;12.90;86.20
70269;DHT22;58514;48.398;-4.274;2022-07-04T04:26:51;12.90;86.10
70269;DHT22;58514;48.398;-4.274;2022-07-04T04:29:16;12.90;86.20
70269;DHT22;58514;48.398;-4.274;2022-07-04T04:31:42;13.00;86.70
70269;DHT22;58514;48.398;-4.274;2022-07-04T04:34:08;13.00;86.30
70269;DHT22;58514;48.398;-4.274;2022-07-04T04:36:33;13.00;86.40
70269;DHT22;58514;48.398;-4.274;2022-07-04T04:38:59;13.00;86.00
70269;DHT22;58514;48.398;-4.274;2022-07-04T04:41:25;13.00;85.80
70269;DHT22;58514;48.398;-4.274;2022-07-04T04:43:50;13.00;86.30
70269;DHT22;58514;48.398;-4.274;2022-07-04T04:46:16;13.00;85.50
70269;DHT22;58514;48.398;-4.274;2022-07-04T04:48:42;12.90;86.30
70269;DHT22;58514;48.398;-4.274;2022-07-04T04:51:07;12.90;86.60
70269;DHT22;58514;48.398;-4.274;2022-07-04T04:53:33;12.90;86.90
70269;DHT22;58514;48.398;-4.274;2022-07-04T04:55:59;13.00;87.30
70269;DHT22;58514;48.398;-4.274;2022-07-04T04:58:25;13.00;87.50
70269;DHT22;58514;48.398;-4.274;2022-07-04T05:00:50;13.10;87.80
70269;DHT22;58514;48.398;-4.274;2022-07-04T05:03:17;13.10;87.80
70269;DHT22;58514;48.398;-4.274;2022-07-04T05:05:43;13.20;88.50
70269;DHT22;58514;48.398;-4.274;2022-07-04T05:08:09;13.30;88.70
70269;DHT22;58514;48.398;-4.274;2022-07-04T05:10:35;13.40;88.40
70269;DHT22;58514;48.398;-4.274;2022-07-04T05:13:01;13.40;88.40
70269;DHT22;58514;48.398;-4.274;2022-07-04T05:15:26;13.50;88.30
70269;DHT22;58514;48.398;-4.274;2022-07-04T05:17:52;13.50;88.10
70269;DHT22;58514;48.398;-4.274;2022-07-04T05:20:18;13.60;88.00
70269;DHT22;58514;48.398;-4.274;2022-07-04T05:22:43;13.60;87.90
70269;DHT22;58514;48.398;-4.274;2022-07-04T05:25:09;13.60;87.90
70269;DHT22;58514;48.398;-4.274;2022-07-04T05:27:35;13.70;87.90
70269;DHT22;58514;48.398;-4.274;2022-07-04T05:30:03;13.80;88.80
70269;DHT22;58514;48.398;-4.274;2022-07-04T05:32:29;13.80;88.90
70269;DHT22;58514;48.398;-4.274;2022-07-04T05:34:54;13.90;88.80
70269;DHT22;58514;48.398;-4.274;2022-07-04T05:37:20;14.00;88.90
70269;DHT22;58514;48.398;-4.274;2022-07-04T05:39:46;14.10;89.00
70269;DHT22;58514;48.398;-4.274;2022-07-04T05:42:11;14.20;88.90
70269;DHT22;58514;48.398;-4.274;2022-07-04T05:44:37;14.20;88.20
70269;DHT22;58514;48.398;-4.274;2022-07-04T05:47:03;14.20;88.90
70269;DHT22;58514;48.398;-4.274;2022-07-04T05:49:28;14.20;89.00
70269;DHT22;58514;48.398;-4.274;2022-07-04T05:51:54;14.30;88.70
70269;DHT22;58514;48.398;-4.274;2022-07-04T05:54:20;14.30;88.80
70269;DHT22;58514;48.398;-4.274;2022-07-04T05:56:45;14.50;89.00
70269;DHT22;58514;48.398;-4.274;2022-07-04T05:59:11;14.50;88.90
70269;DHT22;58514;48.398;-4.274;2022-07-04T06:01:37;14.50;89.20
70269;DHT22;58514;48.398;-4.274;2022-07-04T06:04:04;14.50;88.50
70269;DHT22;58514;48.398;-4.274;2022-07-04T06:06:30;14.60;88.70
70269;DHT22;58514;48.398;-4.274;2022-07-04T06:08:56;14.60;88.50
70269;DHT22;58514;48.398;-4.274;2022-07-04T06:11:22;14.70;89.50
70269;DHT22;58514;48.398;-4.274;2022-07-04T06:13:48;14.70;90.00
70269;DHT22;58514;48.398;-4.274;2022-07-04T06:16:15;14.80;90.00
70269;DHT22;58514;48.398;-4.274;2022-07-04T06:18:42;14.80;89.80
70269;DHT22;58514;48.398;-4.274;2022-07-04T06:21:08;14.90;89.00
70269;DHT22;58514;48.398;-4.274;2022-07-04T06:23:34;14.80;89.20
70269;DHT22;58514;48.398;-4.274;2022-07-04T06:25:59;14.90;89.20
70269;DHT22;58514;48.398;-4.274;2022-07-04T06:28:25;15.00;88.90
70269;DHT22;58514;48.398;-4.274;2022-07-04T06:30:51;15.00;89.40
70269;DHT22;58514;48.398;-4.274;2022-07-04T06:33:16;15.10;89.50
70269;DHT22;58514;48.398;-4.274;2022-07-04T06:35:44;15.20;89.20
70269;DHT22;58514;48.398;-4.274;2022-07-04T06:38:16;15.20;89.40
70269;DHT22;58514;48.398;-4.274;2022-07-04T06:40:42;15.30;89.50
70269;DHT22;58514;48.398;-4.274;2022-07-04T06:43:07;15.40;89.60
70269;DHT22;58514;48.398;-4.274;2022-07-04T06:45:33;15.40;89.60
70269;DHT22;58514;48.398;-4.274;2022-07-04T06:48:04;15.50;88.90
70269;DHT22;58514;48.398;-4.274;2022-07-04T06:50:30;15.50;88.50
70269;DHT22;58514;48.398;-4.274;2022-07-04T06:53:02;15.50;89.30
70269;DHT22;58514;48.398;-4.274;2022-07-04T06:55:29;15.60;88.90
70269;DHT22;58514;48.398;-4.274;2022-07-04T06:57:55;15.60;88.80
70269;DHT22;58514;48.398;-4.274;2022-07-04T07:00:20;15.70;88.10
70269;DHT22;58514;48.398;-4.274;2022-07-04T07:02:46;15.70;88.20
70269;DHT22;58514;48.398;-4.274;2022-07-04T07:05:12;15.80;88.70
70269;DHT22;58514;48.398;-4.274;2022-07-04T07:07:38;15.80;89.40
70269;DHT22;58514;48.398;-4.274;2022-07-04T07:10:04;15.80;88.30
70269;DHT22;58514;48.398;-4.274;2022-07-04T07:12:32;15.90;88.20
70269;DHT22;58514;48.398;-4.274;2022-07-04T07:14:58;16.00;88.40
70269;DHT22;58514;48.398;-4.274;2022-07-04T07:17:24;16.00;87.80
70269;DHT22;58514;48.398;-4.274;2022-07-04T07:19:50;16.00;87.50
70269;DHT22;58514;48.398;-4.274;2022-07-04T07:22:16;16.00;86.90
70269;DHT22;58514;48.398;-4.274;2022-07-04T07:24:42;16.10;86.70
70269;DHT22;58514;48.398;-4.274;2022-07-04T07:27:08;16.10;85.90
70269;DHT22;58514;48.398;-4.274;2022-07-04T07:29:35;16.20;85.90
70269;DHT22;58514;48.398;-4.274;2022-07-04T07:32:01;16.20;86.20
70269;DHT22;58514;48.398;-4.274;2022-07-04T07:34:27;16.30;86.40
70269;DHT22;58514;48.398;-4.274;2022-07-04T07:36:53;16.30;86.20
70269;DHT22;58514;48.398;-4.274;2022-07-04T07:39:19;16.40;85.70
70269;DHT22;58514;48.398;-4.274;2022-07-04T07:41:45;16.50;84.90
70269;DHT22;58514;48.398;-4.274;2022-07-04T07:44:11;16.50;85.00
70269;DHT22;58514;48.398;-4.274;2022-07-04T07:46:37;16.50;84.70
70269;DHT22;58514;48.398;-4.274;2022-07-04T07:49:03;16.60;84.70
70269;DHT22;58514;48.398;-4.274;2022-07-04T07:51:29;16.60;84.30
70269;DHT22;58514;48.398;-4.274;2022-07-04T07:53:55;16.50;84.10
70269;DHT22;58514;48.398;-4.274;2022-07-04T07:56:21;16.50;83.00
70269;DHT22;58514;48.398;-4.274;2022-07-04T07:58:49;16.50;83.10
70269;DHT22;58514;48.398;-4.274;2022-07-04T08:01:15;16.40;83.80
70269;DHT22;58514;48.398;-4.274;2022-07-04T08:03:40;16.50;83.90
70269;DHT22;58514;48.398;-4.274;2022-07-04T08:06:25;16.40;83.20
70269;DHT22;58514;48.398;-4.274;2022-07-04T08:08:50;16.40;83.70
70269;DHT22;58514;48.398;-4.274;2022-07-04T08:11:16;16.40;84.20
70269;DHT22;58514;48.398;-4.274;2022-07-04T08:13:42;16.50;84.10
70269;DHT22;58514;48.398;-4.274;2022-07-04T08:16:10;16.50;84.20
70269;DHT22;58514;48.398;-4.274;2022-07-04T08:18:36;16.50;83.60
70269;DHT22;58514;48.398;-4.274;2022-07-04T08:21:02;16.50;84.20
70269;DHT22;58514;48.398;-4.274;2022-07-04T08:23:32;16.60;84.70
70269;DHT22;58514;48.398;-4.274;2022-07-04T08:25:59;16.60;84.40
70269;DHT22;58514;48.398;-4.274;2022-07-04T08:28:25;16.70;83.80
70269;DHT22;58514;48.398;-4.274;2022-07-04T08:30:51;16.70;84.00
70269;DHT22;58514;48.398;-4.274;2022-07-04T08:33:16;16.70;83.70
70269;DHT22;58514;48.398;-4.274;2022-07-04T08:35:42;16.70;83.70
70269;DHT22;58514;48.398;-4.274;2022-07-04T08:38:08;16.70;83.10
70269;DHT22;58514;48.398;-4.274;2022-07-04T08:40:34;16.70;84.00
70269;DHT22;58514;48.398;-4.274;2022-07-04T08:43:02;16.70;82.40
70269;DHT22;58514;48.398;-4.274;2022-07-04T08:45:30;16.70;81.60
70269;DHT22;58514;48.398;-4.274;2022-07-04T08:48:01;16.70;81.60
70269;DHT22;58514;48.398;-4.274;2022-07-04T08:50:33;16.70;81.50
70269;DHT22;58514;48.398;-4.274;2022-07-04T08:53:00;16.70;82.50
70269;DHT22;58514;48.398;-4.274;2022-07-04T08:55:28;16.70;81.20
70269;DHT22;58514;48.398;-4.274;2022-07-04T08:58:13;16.80;81.30
70269;DHT22;58514;48.398;-4.274;2022-07-04T09:00:57;16.80;81.80
70269;DHT22;58514;48.398;-4.274;2022-07-04T09:03:24;16.90;80.40
70269;DHT22;58514;48.398;-4.274;2022-07-04T09:05:51;16.90;78.70
70269;DHT22;58514;48.398;-4.274;2022-07-04T09:08:17;17.00;79.10
70269;DHT22;58514;48.398;-4.274;2022-07-04T09:10:43;17.10;80.10
70269;DHT22;58514;48.398;-4.274;2022-07-04T09:13:12;17.10;78.80
70269;DHT22;58514;48.398;-4.274;2022-07-04T09:15:41;17.20;79.60
70269;DHT22;58514;48.398;-4.274;2022-07-04T09:18:22;17.30;80.30
70269;DHT22;58514;48.398;-4.274;2022-07-04T09:20:49;17.40;81.00
70269;DHT22;58514;48.398;-4.274;2022-07-04T09:23:25;17.60;79.40
70269;DHT22;58514;48.398;-4.274;2022-07-04T09:28:39;17.80;76.70
70269;DHT22;58514;48.398;-4.274;2022-07-04T09:31:23;17.90;78.90
70269;DHT22;58514;48.398;-4.274;2022-07-04T09:33:54;18.10;78.70
70269;DHT22;58514;48.398;-4.274;2022-07-04T09:36:25;18.10;77.20
70269;DHT22;58514;48.398;-4.274;2022-07-04T09:41:31;18.30;78.00
70269;DHT22;58514;48.398;-4.274;2022-07-04T09:44:06;18.50;78.40
70269;DHT22;58514;48.398;-4.274;2022-07-04T09:46:32;18.50;77.30
70269;DHT22;58514;48.398;-4.274;2022-07-04T09:48:59;18.70;76.40
70269;DHT22;58514;48.398;-4.274;2022-07-04T09:54:19;19.00;76.60
70269;DHT22;58514;48.398;-4.274;2022-07-04T09:56:55;19.10;75.60
70269;DHT22;58514;48.398;-4.274;2022-07-04T09:59:22;19.20;76.00
70269;DHT22;58514;48.398;-4.274;2022-07-04T10:01:48;19.20;71.30
70269;DHT22;58514;48.398;-4.274;2022-07-04T10:04:14;19.20;74.80
70269;DHT22;58514;48.398;-4.274;2022-07-04T10:06:44;19.20;71.80
70269;DHT22;58514;48.398;-4.274;2022-07-04T10:09:15;19.40;75.40
70269;DHT22;58514;48.398;-4.274;2022-07-04T10:11:44;19.50;74.70
70269;DHT22;58514;48.398;-4.274;2022-07-04T10:14:11;19.50;72.40
70269;DHT22;58514;48.398;-4.274;2022-07-04T10:16:38;19.50;71.60
70269;DHT22;58514;48.398;-4.274;2022-07-04T10:19:05;19.60;71.90
70269;DHT22;58514;48.398;-4.274;2022-07-04T10:21:31;19.60;71.00
70269;DHT22;58514;48.398;-4.274;2022-07-04T10:23:58;19.70;71.00
70269;DHT22;58514;48.398;-4.274;2022-07-04T10:26:24;19.80;70.80
70269;DHT22;58514;48.398;-4.274;2022-07-04T10:28:50;19.80;72.10
70269;DHT22;58514;48.398;-4.274;2022-07-04T10:31:18;20.10;74.40
70269;DHT22;58514;48.398;-4.274;2022-07-04T10:33:45;20.50;74.50
70269;DHT22;58514;48.398;-4.274;2022-07-04T10:36:15;21.00;75.50
70269;DHT22;58514;48.398;-4.274;2022-07-04T10:38:55;21.60;75.10
70269;DHT22;58514;48.398;-4.274;2022-07-04T10:41:22;22.10;74.30
70269;DHT22;58514;48.398;-4.274;2022-07-04T10:43:52;22.30;71.00
70269;DHT22;58514;48.398;-4.274;2022-07-04T10:46:56;22.40;69.00
70269;DHT22;58514;48.398;-4.274;2022-07-04T10:49:24;22.40;67.20
70269;DHT22;58514;48.398;-4.274;2022-07-04T10:51:54;22.30;67.90
70269;DHT22;58514;48.398;-4.274;2022-07-04T10:56:56;22.00;63.90
70269;DHT22;58514;48.398;-4.274;2022-07-04T10:59:29;21.80;65.50
70269;DHT22;58514;48.398;-4.274;2022-07-04T11:17:50;22.40;67.60
70269;DHT22;58514;48.398;-4.274;2022-07-04T11:20:18;23.10;68.20
70269;DHT22;58514;48.398;-4.274;2022-07-04T11:22:43;23.50;66.30
70269;DHT22;58514;48.398;-4.274;2022-07-04T11:25:11;24.00;64.70
70269;DHT22;58514;48.398;-4.274;2022-07-04T11:27:37;24.40;61.00
70269;DHT22;58514;48.398;-4.274;2022-07-04T11:30:03;24.60;62.20
70269;DHT22;58514;48.398;-4.274;2022-07-04T11:32:33;24.40;59.60
70269;DHT22;58514;48.398;-4.274;2022-07-04T11:35:00;24.00;58.60
70269;DHT22;58514;48.398;-4.274;2022-07-04T11:37:25;23.70;57.30
70269;DHT22;58514;48.398;-4.274;2022-07-04T11:39:55;23.30;57.90
70269;DHT22;58514;48.398;-4.274;2022-07-04T11:42:40;22.80;56.90
70269;DHT22;58514;48.398;-4.274;2022-07-04T11:45:24;22.90;62.10
70269;DHT22;58514;48.398;-4.274;2022-07-04T11:47:50;23.40;63.00
70269;DHT22;58514;48.398;-4.274;2022-07-04T11:50:17;23.70;59.70
70269;DHT22;58514;48.398;-4.274;2022-07-04T11:52:48;23.60;57.70
70269;DHT22;58514;48.398;-4.274;2022-07-04T11:55:17;23.40;57.10
70269;DHT22;58514;48.398;-4.274;2022-07-04T11:57:48;23.10;58.70
70269;DHT22;58514;48.398;-4.274;2022-07-04T12:02:41;23.00;58.10
70269;DHT22;58514;48.398;-4.274;2022-07-04T12:05:09;23.10;58.60
70269;DHT22;58514;48.398;-4.274;2022-07-04T12:07:38;22.90;57.00
70269;DHT22;58514;48.398;-4.274;2022-07-04T12:12:34;22.40;59.20
70269;DHT22;58514;48.398;-4.274;2022-07-04T12:15:07;22.20;57.50
70269;DHT22;58514;48.398;-4.274;2022-07-04T12:17:36;22.00;58.80
70269;DHT22;58514;48.398;-4.274;2022-07-04T12:22:43;22.80;57.30
70269;DHT22;58514;48.398;-4.274;2022-07-04T12:25:29;23.10;57.30
70269;DHT22;58514;48.398;-4.274;2022-07-04T12:28:02;23.00;56.70
70269;DHT22;58514;48.398;-4.274;2022-07-04T12:30:34;22.80;55.50
70269;DHT22;58514;48.398;-4.274;2022-07-04T12:33:08;22.90;58.50
70269;DHT22;58514;48.398;-4.274;2022-07-04T12:35:48;23.60;59.00
70269;DHT22;58514;48.398;-4.274;2022-07-04T12:38:18;24.10;57.70
70269;DHT22;58514;48.398;-4.274;2022-07-04T12:43:45;24.40;55.60
70269;DHT22;58514;48.398;-4.274;2022-07-04T12:46:31;25.30;55.80
70269;DHT22;58514;48.398;-4.274;2022-07-04T12:48:59;26.20;55.30
70269;DHT22;58514;48.398;-4.274;2022-07-04T12:51:30;27.00;52.80
70269;DHT22;58514;48.398;-4.274;2022-07-04T12:53:58;27.50;51.90
70269;DHT22;58514;48.398;-4.274;2022-07-04T12:56:44;27.90;52.70
70269;DHT22;58514;48.398;-4.274;2022-07-04T12:59:17;28.30;49.60
70269;DHT22;58514;48.398;-4.274;2022-07-04T13:01:46;28.60;51.00
70269;DHT22;58514;48.398;-4.274;2022-07-04T13:04:12;28.90;49.90
70269;DHT22;58514;48.398;-4.274;2022-07-04T13:06:39;29.10;49.20
70269;DHT22;58514;48.398;-4.274;2022-07-04T13:09:05;29.10;46.50
70269;DHT22;58514;48.398;-4.274;2022-07-04T13:11:33;29.00;49.10
70269;DHT22;58514;48.398;-4.274;2022-07-04T13:14:18;29.00;49.70
70269;DHT22;58514;48.398;-4.274;2022-07-04T13:16:44;29.20;47.30
70269;DHT22;58514;48.398;-4.274;2022-07-04T13:19:09;29.30;46.40
70269;DHT22;58514;48.398;-4.274;2022-07-04T13:21:36;29.30;44.90
70269;DHT22;58514;48.398;-4.274;2022-07-04T13:24:02;29.10;45.10
70269;DHT22;58514;48.398;-4.274;2022-07-04T13:26:27;28.80;46.30
70269;DHT22;58514;48.398;-4.274;2022-07-04T13:28:56;28.50;46.70
70269;DHT22;58514;48.398;-4.274;2022-07-04T13:31:22;28.20;47.20
70269;DHT22;58514;48.398;-4.274;2022-07-04T13:33:47;27.80;47.40
70269;DHT22;58514;48.398;-4.274;2022-07-04T13:36:13;27.60;48.70
70269;DHT22;58514;48.398;-4.274;2022-07-04T13:38:40;27.50;49.10
70269;DHT22;58514;48.398;-4.274;2022-07-04T13:41:06;27.60;48.80
70269;DHT22;58514;48.398;-4.274;2022-07-04T13:43:32;27.60;48.70
70269;DHT22;58514;48.398;-4.274;2022-07-04T13:45:58;27.50;48.80
70269;DHT22;58514;48.398;-4.274;2022-07-04T13:48:23;27.50;48.80
70269;DHT22;58514;48.398;-4.274;2022-07-04T13:50:50;27.50;49.10
70269;DHT22;58514;48.398;-4.274;2022-07-04T13:53:15;27.40;50.40
70269;DHT22;58514;48.398;-4.274;2022-07-04T13:55:41;27.40;49.60
70269;DHT22;58514;48.398;-4.274;2022-07-04T13:58:08;27.30;48.80
70269;DHT22;58514;48.398;-4.274;2022-07-04T14:00:35;27.10;47.70
70269;DHT22;58514;48.398;-4.274;2022-07-04T14:03:01;26.90;49.40
70269;DHT22;58514;48.398;-4.274;2022-07-04T14:05:26;26.80;48.70
70269;DHT22;58514;48.398;-4.274;2022-07-04T14:07:53;26.70;49.40
70269;DHT22;58514;48.398;-4.274;2022-07-04T14:10:19;26.60;49.00
70269;DHT22;58514;48.398;-4.274;2022-07-04T14:12:45;26.50;48.80
70269;DHT22;58514;48.398;-4.274;2022-07-04T14:15:11;26.40;48.50
70269;DHT22;58514;48.398;-4.274;2022-07-04T14:17:38;26.30;49.00
70269;DHT22;58514;48.398;-4.274;2022-07-04T14:20:04;26.20;49.60
70269;DHT22;58514;48.398;-4.274;2022-07-04T14:22:31;26.10;49.20
70269;DHT22;58514;48.398;-4.274;2022-07-04T14:24:56;25.90;47.90
70269;DHT22;58514;48.398;-4.274;2022-07-04T14:27:23;25.60;47.50
70269;DHT22;58514;48.398;-4.274;2022-07-04T14:29:48;25.30;48.50
70269;DHT22;58514;48.398;-4.274;2022-07-04T14:32:14;25.00;49.20
70269;DHT22;58514;48.398;-4.274;2022-07-04T14:34:40;24.90;49.30
70269;DHT22;58514;48.398;-4.274;2022-07-04T14:37:06;24.90;50.30
70269;DHT22;58514;48.398;-4.274;2022-07-04T14:39:31;24.80;50.40
70269;DHT22;58514;48.398;-4.274;2022-07-04T14:41:57;24.90;49.80
70269;DHT22;58514;48.398;-4.274;2022-07-04T14:44:23;24.80;50.30
70269;DHT22;58514;48.398;-4.274;2022-07-04T14:46:48;24.80;49.10
70269;DHT22;58514;48.398;-4.274;2022-07-04T14:49:14;24.80;50.00
70269;DHT22;58514;48.398;-4.274;2022-07-04T14:51:40;24.70;50.10
70269;DHT22;58514;48.398;-4.274;2022-07-04T14:54:09;24.60;49.70
70269;DHT22;58514;48.398;-4.274;2022-07-04T14:56:36;24.60;49.70
70269;DHT22;58514;48.398;-4.274;2022-07-04T14:59:03;24.60;49.70
70269;DHT22;58514;48.398;-4.274;2022-07-04T15:01:29;24.40;49.70
70269;DHT22;58514;48.398;-4.274;2022-07-04T15:03:55;24.40;50.30
70269;DHT22;58514;48.398;-4.274;2022-07-04T15:06:21;24.40;50.90
70269;DHT22;58514;48.398;-4.274;2022-07-04T15:08:47;24.20;49.30
70269;DHT22;58514;48.398;-4.274;2022-07-04T15:11:13;24.20;51.20
70269;DHT22;58514;48.398;-4.274;2022-07-04T15:13:39;24.00;49.40
70269;DHT22;58514;48.398;-4.274;2022-07-04T15:16:04;23.80;49.20
70269;DHT22;58514;48.398;-4.274;2022-07-04T15:18:30;23.70;49.60
70269;DHT22;58514;48.398;-4.274;2022-07-04T15:20:56;23.60;50.40
70269;DHT22;58514;48.398;-4.274;2022-07-04T15:23:40;23.50;50.90
70269;DHT22;58514;48.398;-4.274;2022-07-04T15:26:25;23.50;51.30
70269;DHT22;58514;48.398;-4.274;2022-07-04T15:28:50;23.50;51.50
70269;DHT22;58514;48.398;-4.274;2022-07-04T15:31:17;23.50;50.30
70269;DHT22;58514;48.398;-4.274;2022-07-04T15:33:42;23.50;51.10
70269;DHT22;58514;48.398;-4.274;2022-07-04T15:36:08;23.40;50.30
70269;DHT22;58514;48.398;-4.274;2022-07-04T15:38:34;23.40;50.20
70269;DHT22;58514;48.398;-4.274;2022-07-04T15:40:59;23.20;50.60
70269;DHT22;58514;48.398;-4.274;2022-07-04T15:43:27;23.00;50.90
70269;DHT22;58514;48.398;-4.274;2022-07-04T15:45:52;23.00;50.30
70269;DHT22;58514;48.398;-4.274;2022-07-04T15:48:18;22.90;51.10
70269;DHT22;58514;48.398;-4.274;2022-07-04T15:50:44;22.90;51.00
70269;DHT22;58514;48.398;-4.274;2022-07-04T15:53:10;22.80;51.80